sensor_id;sensor_type;location;lat;lon;timestamp;pressure;altitude;pressure_sealevel;temperature;humidity
75221;BME280;63802;53.232;6.570;2024-03-08T00:01:38;102219.09;;;1.58;100.00
75221;BME280;63802;53.232;6.570;2024-03-08T00:04:06;102216.41;;;1.58;100.00
75221;BME280;63802;53.232;6.570;2024-03-08T00:06:44;102251.91;;;1.85;100.00
75221;BME280;63802;53.232;6.570;2024-03-08T00:09:30;102218.00;;;1.64;100.00
75221;BME280;63802;53.232;6.570;2024-03-08T00:12:06;102225.03;;;1.75;100.00
75221;BME280;63802;53.232;6.570;2024-03-08T00:14:41;102219.88;;;1.73;100.00
75221;BME280;63802;53.232;6.570;2024-03-08T00:17:13;102189.75;;;1.56;100.00
75221;BME280;63802;53.232;6.570;2024-03-08T00:19:41;102183.59;;;1.56;100.00
75221;BME280;63802;53.232;6.570;2024-03-08T00:22:23;102202.41;;;1.66;100.00
75221;BME280;63802;53.232;6.570;2024-03-08T00:24:49;102213.97;;;1.71;100.00
75221;BME280;63802;53.232;6.570;2024-03-08T00:27:24;102203.50;;;1.65;100.00
75221;BME280;63802;53.232;6.570;2024-03-08T00:30:10;102226.63;;;1.81;100.00
75221;BME280;63802;53.232;6.570;2024-03-08T00:32:58;102196.75;;;1.57;100.00
75221;BME280;63802;53.232;6.570;2024-03-08T00:38:29;102198.38;;;1.53;100.00
75221;BME280;63802;53.232;6.570;2024-03-08T00:41:11;102211.03;;;1.63;100.00
75221;BME280;63802;53.232;6.570;2024-03-08T00:43:56;102230.66;;;1.78;100.00
75221;BME280;63802;53.232;6.570;2024-03-08T00:46:58;102207.00;;;1.60;100.00
75221;BME280;63802;53.232;6.570;2024-03-08T00:49:48;102234.16;;;1.74;100.00
75221;BME280;63802;53.232;6.570;2024-03-08T00:52:33;102207.22;;;1.59;100.00
75221;BME280;63802;53.232;6.570;2024-03-08T00:56:07;102176.84;;;1.43;100.00
75221;BME280;63802;53.232;6.570;2024-03-08T01:01:55;102191.09;;;1.59;100.00
75221;BME280;63802;53.232;6.570;2024-03-08T01:09:57;102211.28;;;1.66;100.00
75221;BME280;63802;53.232;6.570;2024-03-08T01:12:58;102159.88;;;1.32;100.00
75221;BME280;63802;53.232;6.570;2024-03-08T01:18:48;102188.97;;;1.56;100.00
75221;BME280;63802;53.232;6.570;2024-03-08T01:21:15;102178.72;;;1.43;100.00
75221;BME280;63802;53.232;6.570;2024-03-08T01:23:45;102189.47;;;1.43;100.00
75221;BME280;63802;53.232;6.570;2024-03-08T01:26:10;102181.69;;;1.51;100.00
75221;BME280;63802;53.232;6.570;2024-03-08T01:31:21;102185.16;;;1.47;100.00
75221;BME280;63802;53.232;6.570;2024-03-08T01:34:07;102159.63;;;1.34;100.00
75221;BME280;63802;53.232;6.570;2024-03-08T01:41:49;102144.84;;;1.21;100.00
75221;BME280;63802;53.232;6.570;2024-03-08T01:44:19;102158.28;;;1.37;100.00
75221;BME280;63802;53.232;6.570;2024-03-08T01:49:59;102144.28;;;1.14;100.00
75221;BME280;63802;53.232;6.570;2024-03-08T01:52:33;102154.50;;;1.22;100.00
75221;BME280;63802;53.232;6.570;2024-03-08T01:54:59;102105.03;;;0.93;100.00
75221;BME280;63802;53.232;6.570;2024-03-08T01:57:42;102110.41;;;0.93;100.00
75221;BME280;63802;53.232;6.570;2024-03-08T02:00:14;102130.81;;;1.04;100.00
75221;BME280;63802;53.232;6.570;2024-03-08T02:02:51;102153.41;;;1.18;100.00
75221;BME280;63802;53.232;6.570;2024-03-08T02:05:40;102127.06;;;1.00;100.00
75221;BME280;63802;53.232;6.570;2024-03-08T02:08:15;102141.03;;;1.02;100.00
75221;BME280;63802;53.232;6.570;2024-03-08T02:13:28;102154.50;;;1.12;100.00
75221;BME280;63802;53.232;6.570;2024-03-08T02:16:00;102096.94;;;0.78;100.00
75221;BME280;63802;53.232;6.570;2024-03-08T02:18:35;102101.22;;;0.84;100.00
75221;BME280;63802;53.232;6.570;2024-03-08T02:21:19;102125.97;;;0.96;100.00
75221;BME280;63802;53.232;6.570;2024-03-08T02:23:49;102105.81;;;0.84;100.00
75221;BME280;63802;53.232;6.570;2024-03-08T02:26:41;102142.63;;;1.03;100.00
75221;BME280;63802;53.232;6.570;2024-03-08T02:32:06;102085.09;;;0.74;100.00
75221;BME280;63802;53.232;6.570;2024-03-08T02:35:05;102093.16;;;0.74;100.00
75221;BME280;63802;53.232;6.570;2024-03-08T02:41:10;102114.41;;;0.81;100.00
75221;BME280;63802;53.232;6.570;2024-03-08T02:43:36;102136.19;;;0.94;100.00
75221;BME280;63802;53.232;6.570;2024-03-08T02:58:16;102078.63;;;0.60;100.00
75221;BME280;63802;53.232;6.570;2024-03-08T03:01:46;102131.34;;;0.86;100.00
75221;BME280;63802;53.232;6.570;2024-03-08T03:07:39;102121.63;;;0.80;100.00
75221;BME280;63802;53.232;6.570;2024-03-08T03:10:39;102089.91;;;0.57;100.00
75221;BME280;63802;53.232;6.570;2024-03-08T03:13:05;102104.94;;;0.68;100.00
75221;BME280;63802;53.232;6.570;2024-03-08T03:15:37;102101.19;;;0.64;100.00
75221;BME280;63802;53.232;6.570;2024-03-08T03:18:07;102082.34;;;0.54;100.00
75221;BME280;63802;53.232;6.570;2024-03-08T03:20:56;102086.38;;;0.51;100.00
75221;BME280;63802;53.232;6.570;2024-03-08T03:23:53;102081.31;;;0.55;100.00
75221;BME280;63802;53.232;6.570;2024-03-08T03:26:25;102078.31;;;0.51;100.00
75221;BME280;63802;53.232;6.570;2024-03-08T03:28:57;102102.25;;;0.68;100.00
75221;BME280;63802;53.232;6.570;2024-03-08T03:31:56;102110.88;;;0.70;100.00
75221;BME280;63802;53.232;6.570;2024-03-08T03:34:55;102118.69;;;0.82;100.00
75221;BME280;63802;53.232;6.570;2024-03-08T03:52:00;102108.16;;;0.65;100.00
75221;BME280;63802;53.232;6.570;2024-03-08T03:57:42;102060.28;;;0.32;100.00
75221;BME280;63802;53.232;6.570;2024-03-08T04:03:27;102047.13;;;0.30;100.00
75221;BME280;63802;53.232;6.570;2024-03-08T04:05:55;102102.78;;;0.55;100.00
75221;BME280;63802;53.232;6.570;2024-03-08T04:08:48;102096.06;;;0.52;100.00
75221;BME280;63802;53.232;6.570;2024-03-08T04:11:52;102097.13;;;0.51;100.00
75221;BME280;63802;53.232;6.570;2024-03-08T04:14:46;102087.97;;;0.47;100.00
75221;BME280;63802;53.232;6.570;2024-03-08T04:17:12;102031.78;;;0.16;100.00
75221;BME280;63802;53.232;6.570;2024-03-08T04:19:55;102074.53;;;0.37;100.00
75221;BME280;63802;53.232;6.570;2024-03-08T04:34:01;102042.53;;;0.21;100.00
75221;BME280;63802;53.232;6.570;2024-03-08T04:39:06;102045.69;;;0.13;100.00
75221;BME280;63802;53.232;6.570;2024-03-08T04:42:03;102025.28;;;0.02;100.00
75221;BME280;63802;53.232;6.570;2024-03-08T04:44:44;102046.25;;;0.10;100.00
75221;BME280;63802;53.232;6.570;2024-03-08T04:47:30;102022.56;;;-0.04;100.00
75221;BME280;63802;53.232;6.570;2024-03-08T04:50:00;102025.81;;;0.04;100.00
75221;BME280;63802;53.232;6.570;2024-03-08T04:53:12;102033.06;;;0.08;100.00
75221;BME280;63802;53.232;6.570;2024-03-08T04:55:51;102058.91;;;0.24;100.00
75221;BME280;63802;53.232;6.570;2024-03-08T05:02:03;102009.44;;;-0.05;100.00
75221;BME280;63802;53.232;6.570;2024-03-08T05:04:32;101994.09;;;-0.10;100.00
75221;BME280;63802;53.232;6.570;2024-03-08T05:07:04;102043.59;;;0.20;100.00
75221;BME280;63802;53.232;6.570;2024-03-08T05:17:48;102040.13;;;0.19;100.00
75221;BME280;63802;53.232;6.570;2024-03-08T05:20:47;102049.75;;;0.15;100.00
75221;BME280;63802;53.232;6.570;2024-03-08T05:23:22;102023.13;;;0.04;100.00
75221;BME280;63802;53.232;6.570;2024-03-08T05:26:04;101991.41;;;-0.10;100.00
75221;BME280;63802;53.232;6.570;2024-03-08T05:28:31;102015.91;;;0.04;100.00
75221;BME280;63802;53.232;6.570;2024-03-08T05:30:57;102030.41;;;0.13;100.00
75221;BME280;63802;53.232;6.570;2024-03-08T05:36:28;102015.59;;;0.00;100.00
75221;BME280;63802;53.232;6.570;2024-03-08T05:39:16;102033.88;;;0.09;100.00
75221;BME280;63802;53.232;6.570;2024-03-08T05:41:51;102033.88;;;0.09;100.00
75221;BME280;63802;53.232;6.570;2024-03-08T05:44:27;102040.88;;;0.10;100.00
75221;BME280;63802;53.232;6.570;2024-03-08T05:46:54;102008.88;;;-0.07;100.00
75221;BME280;63802;53.232;6.570;2024-03-08T05:49:35;102029.59;;;0.08;100.00
75221;BME280;63802;53.232;6.570;2024-03-08T05:54:40;102034.41;;;0.06;100.00
75221;BME280;63802;53.232;6.570;2024-03-08T05:57:21;102039.78;;;0.06;100.00
75221;BME280;63802;53.232;6.570;2024-03-08T06:00:00;102045.41;;;0.04;100.00
75221;BME280;63802;53.232;6.570;2024-03-08T06:02:56;102015.53;;;-0.20;100.00
75221;BME280;63802;53.232;6.570;2024-03-08T06:18:56;101990.00;;;-0.32;100.00
75221;BME280;63802;53.232;6.570;2024-03-08T06:21:30;102005.59;;;-0.19;100.00
75221;BME280;63802;53.232;6.570;2024-03-08T06:24:11;102040.84;;;-0.01;100.00
75221;BME280;63802;53.232;6.570;2024-03-08T06:26:47;102023.88;;;-0.11;100.00
75221;BME280;63802;53.232;6.570;2024-03-08T06:32:16;102034.13;;;0.02;100.00
75221;BME280;63802;53.232;6.570;2024-03-08T06:34:50;102013.97;;;-0.06;100.00
75221;BME280;63802;53.232;6.570;2024-03-08T06:40:30;101983.88;;;-0.23;100.00
75221;BME280;63802;53.232;6.570;2024-03-08T06:43:02;102024.78;;;0.10;100.00
75221;BME280;63802;53.232;6.570;2024-03-08T06:45:50;102035.53;;;0.10;100.00
75221;BME280;63802;53.232;6.570;2024-03-08T06:48:38;101981.44;;;-0.19;100.00
75221;BME280;63802;53.232;6.570;2024-03-08T06:51:53;101977.44;;;-0.17;100.00
75221;BME280;63802;53.232;6.570;2024-03-08T06:54:19;102017.22;;;0.02;100.00
75221;BME280;63802;53.232;6.570;2024-03-08T07:00:12;102026.97;;;0.28;100.00
75221;BME280;63802;53.232;6.570;2024-03-08T07:03:08;101974.00;;;-0.02;100.00
75221;BME280;63802;53.232;6.570;2024-03-08T07:05:40;102033.41;;;0.32;100.00
75221;BME280;63802;53.232;6.570;2024-03-08T07:08:43;102035.06;;;0.38;100.00
75221;BME280;63802;53.232;6.570;2024-03-08T07:11:17;101986.16;;;0.16;100.00
75221;BME280;63802;53.232;6.570;2024-03-08T07:17:04;102011.16;;;0.41;100.00
75221;BME280;63802;53.232;6.570;2024-03-08T07:19:33;102013.06;;;0.46;100.00
75221;BME280;63802;53.232;6.570;2024-03-08T07:22:05;101990.47;;;0.32;100.00
75221;BME280;63802;53.232;6.570;2024-03-08T07:24:47;102012.28;;;0.45;100.00
75221;BME280;63802;53.232;6.570;2024-03-08T07:27:36;101993.19;;;0.47;100.00
75221;BME280;63802;53.232;6.570;2024-03-08T07:30:05;101987.81;;;0.47;100.00
75221;BME280;63802;53.232;6.570;2024-03-08T07:32:30;102027.09;;;0.83;100.00
75221;BME280;63802;53.232;6.570;2024-03-08T07:35:15;102010.41;;;0.91;100.00
75221;BME280;63802;53.232;6.570;2024-03-08T07:37:44;101978.19;;;0.81;100.00
75221;BME280;63802;53.232;6.570;2024-03-08T07:42:40;102026.78;;;1.30;100.00
75221;BME280;63802;53.232;6.570;2024-03-08T07:45:07;102006.09;;;1.25;100.00
75221;BME280;63802;53.232;6.570;2024-03-08T07:47:38;102017.88;;;1.50;100.00
75221;BME280;63802;53.232;6.570;2024-03-08T07:50:07;102010.63;;;1.55;100.00
75221;BME280;63802;53.232;6.570;2024-03-08T07:52:36;102017.31;;;1.68;100.00
75221;BME280;63802;53.232;6.570;2024-03-08T07:55:09;102024.25;;;1.84;100.00
75221;BME280;63802;53.232;6.570;2024-03-08T07:57:35;102015.34;;;1.98;100.00
75221;BME280;63802;53.232;6.570;2024-03-08T08:00:05;102017.66;;;2.20;100.00
75221;BME280;63802;53.232;6.570;2024-03-08T08:03:13;102017.06;;;2.23;100.00
75221;BME280;63802;53.232;6.570;2024-03-08T08:05:44;101996.13;;;2.15;100.00
75221;BME280;63802;53.232;6.570;2024-03-08T08:08:09;102000.63;;;2.30;100.00
75221;BME280;63802;53.232;6.570;2024-03-08T08:10:40;102003.47;;;2.48;100.00
75221;BME280;63802;53.232;6.570;2024-03-08T08:13:07;102013.22;;;2.44;100.00
75221;BME280;63802;53.232;6.570;2024-03-08T08:15:33;102007.47;;;2.56;100.00
75221;BME280;63802;53.232;6.570;2024-03-08T08:18:08;102016.38;;;2.56;100.00
75221;BME280;63802;53.232;6.570;2024-03-08T08:20:41;101986.34;;;2.34;100.00
75221;BME280;63802;53.232;6.570;2024-03-08T08:23:19;101978.66;;;2.56;100.00
75221;BME280;63802;53.232;6.570;2024-03-08T08:25:46;101982.91;;;2.62;100.00
75221;BME280;63802;53.232;6.570;2024-03-08T08:28:25;101977.28;;;2.59;100.00
75221;BME280;63802;53.232;6.570;2024-03-08T08:34:25;101984.19;;;3.04;100.00
75221;BME280;63802;53.232;6.570;2024-03-08T08:36:52;101945.84;;;2.83;100.00
75221;BME280;63802;53.232;6.570;2024-03-08T08:39:19;101958.47;;;2.88;100.00
75221;BME280;63802;53.232;6.570;2024-03-08T08:41:59;101941.28;;;2.79;100.00
75221;BME280;63802;53.232;6.570;2024-03-08T08:44:25;101971.91;;;2.93;100.00
75221;BME280;63802;53.232;6.570;2024-03-08T08:46:52;101966.13;;;3.04;100.00
75221;BME280;63802;53.232;6.570;2024-03-08T08:49:19;101952.91;;;3.03;100.00
75221;BME280;63802;53.232;6.570;2024-03-08T08:52:24;101941.56;;;3.06;100.00
75221;BME280;63802;53.232;6.570;2024-03-08T08:54:59;101932.03;;;2.90;100.00
75221;BME280;63802;53.232;6.570;2024-03-08T08:57:30;101939.63;;;2.83;100.00
75221;BME280;63802;53.232;6.570;2024-03-08T09:00:12;101943.38;;;2.87;100.00
75221;BME280;63802;53.232;6.570;2024-03-08T09:03:02;101917.66;;;2.99;100.00
75221;BME280;63802;53.232;6.570;2024-03-08T09:05:47;101954.53;;;3.04;100.00
75221;BME280;63802;53.232;6.570;2024-03-08T09:08:14;101923.38;;;2.93;100.00
75221;BME280;63802;53.232;6.570;2024-03-08T09:10:43;101904.25;;;2.89;100.00
75221;BME280;63802;53.232;6.570;2024-03-08T09:13:19;101923.06;;;3.23;100.00
75221;BME280;63802;53.232;6.570;2024-03-08T09:15:45;101946.94;;;3.58;100.00
75221;BME280;63802;53.232;6.570;2024-03-08T09:18:12;101922.84;;;3.43;100.00
75221;BME280;63802;53.232;6.570;2024-03-08T09:20:43;101916.28;;;3.49;100.00
75221;BME280;63802;53.232;6.570;2024-03-08T09:25:48;101913.91;;;3.66;100.00
75221;BME280;63802;53.232;6.570;2024-03-08T09:28:18;101925.03;;;3.83;100.00
75221;BME280;63802;53.232;6.570;2024-03-08T09:31:08;101905.31;;;3.64;100.00
75221;BME280;63802;53.232;6.570;2024-03-08T09:33:38;101928.88;;;3.77;100.00
75221;BME280;63802;53.232;6.570;2024-03-08T09:36:26;101889.56;;;3.71;100.00
75221;BME280;63802;53.232;6.570;2024-03-08T09:39:12;101872.31;;;3.67;100.00
75221;BME280;63802;53.232;6.570;2024-03-08T09:44:18;101893.75;;;4.20;100.00
75221;BME280;63802;53.232;6.570;2024-03-08T09:49:32;101863.44;;;4.55;100.00
75221;BME280;63802;53.232;6.570;2024-03-08T09:54:56;101862.31;;;4.42;100.00
75221;BME280;63802;53.232;6.570;2024-03-08T10:00:21;101855.72;;;5.08;100.00
75221;BME280;63802;53.232;6.570;2024-03-08T10:03:01;101869.41;;;4.84;100.00
75221;BME280;63802;53.232;6.570;2024-03-08T10:05:27;101842.28;;;4.89;100.00
75221;BME280;63802;53.232;6.570;2024-03-08T10:07:53;101846.69;;;5.26;100.00
75221;BME280;63802;53.232;6.570;2024-03-08T10:10:36;101842.28;;;5.43;100.00
75221;BME280;63802;53.232;6.570;2024-03-08T10:13:47;101842.88;;;5.40;100.00
75221;BME280;63802;53.232;6.570;2024-03-08T10:16:18;101847.66;;;5.71;100.00
75221;BME280;63802;53.232;6.570;2024-03-08T10:18:55;101812.78;;;5.56;100.00
75221;BME280;63802;53.232;6.570;2024-03-08T10:21:31;101838.59;;;5.89;100.00
75221;BME280;63802;53.232;6.570;2024-03-08T10:24:01;101821.53;;;5.88;100.00
75221;BME280;63802;53.232;6.570;2024-03-08T10:26:34;101798.34;;;6.18;100.00
75221;BME280;63802;53.232;6.570;2024-03-08T10:34:50;101799.63;;;5.98;100.00
75221;BME280;63802;53.232;6.570;2024-03-08T10:37:38;101781.72;;;5.89;100.00
75221;BME280;63802;53.232;6.570;2024-03-08T10:44:40;101770.56;;;6.43;100.00
75221;BME280;63802;53.232;6.570;2024-03-08T10:50:25;101808.31;;;7.66;100.00
75221;BME280;63802;53.232;6.570;2024-03-08T10:53:00;101798.84;;;7.38;100.00
75221;BME280;63802;53.232;6.570;2024-03-08T10:55:46;101766.88;;;7.18;100.00
75221;BME280;63802;53.232;6.570;2024-03-08T11:26:33;101751.91;;;7.80;100.00
75221;BME280;63802;53.232;6.570;2024-03-08T11:50:59;101734.41;;;8.33;100.00
75221;BME280;63802;53.232;6.570;2024-03-08T11:53:33;101673.19;;;8.09;100.00
75221;BME280;63802;53.232;6.570;2024-03-08T11:56:34;101675.56;;;8.11;100.00
75221;BME280;63802;53.232;6.570;2024-03-08T11:59:19;101717.19;;;7.94;100.00
75221;BME280;63802;53.232;6.570;2024-03-08T12:02:07;101714.38;;;8.46;100.00
75221;BME280;63802;53.232;6.570;2024-03-08T12:04:39;101678.03;;;7.95;100.00
75221;BME280;63802;53.232;6.570;2024-03-08T12:07:13;101714.66;;;8.53;100.00
75221;BME280;63802;53.232;6.570;2024-03-08T12:10:23;101701.81;;;8.62;100.00
75221;BME280;63802;53.232;6.570;2024-03-08T12:13:19;101709.69;;;8.84;100.00
75221;BME280;63802;53.232;6.570;2024-03-08T12:15:51;101699.78;;;8.50;100.00
75221;BME280;63802;53.232;6.570;2024-03-08T12:18:33;101698.25;;;8.70;100.00
75221;BME280;63802;53.232;6.570;2024-03-08T12:24:35;101630.06;;;8.96;100.00
75221;BME280;63802;53.232;6.570;2024-03-08T12:27:50;101675.69;;;8.69;100.00
75221;BME280;63802;53.232;6.570;2024-03-08T12:30:32;101675.78;;;8.52;100.00
75221;BME280;63802;53.232;6.570;2024-03-08T12:33:06;101660.16;;;8.70;100.00
75221;BME280;63802;53.232;6.570;2024-03-08T12:35:39;101639.81;;;8.47;100.00
75221;BME280;63802;53.232;6.570;2024-03-08T12:47:45;101607.31;;;8.71;100.00
75221;BME280;63802;53.232;6.570;2024-03-08T12:50:22;101604.41;;;8.76;100.00
75221;BME280;63802;53.232;6.570;2024-03-08T12:56:33;101619.09;;;9.58;100.00
75221;BME280;63802;53.232;6.570;2024-03-08T13:02:59;101597.44;;;9.28;100.00
75221;BME280;63802;53.232;6.570;2024-03-08T13:05:37;101550.56;;;9.02;100.00
75221;BME280;63802;53.232;6.570;2024-03-08T13:08:06;101567.22;;;9.21;100.00
75221;BME280;63802;53.232;6.570;2024-03-08T13:13:40;101591.59;;;9.51;100.00
75221;BME280;63802;53.232;6.570;2024-03-08T13:19:49;101528.97;;;9.18;100.00
75221;BME280;63802;53.232;6.570;2024-03-08T13:22:33;101559.84;;;9.55;100.00
75221;BME280;63802;53.232;6.570;2024-03-08T13:27:50;101519.44;;;9.57;100.00
75221;BME280;63802;53.232;6.570;2024-03-08T13:30:37;101530.06;;;9.37;100.00
75221;BME280;63802;53.232;6.570;2024-03-08T13:33:35;101542.81;;;9.70;100.00
75221;BME280;63802;53.232;6.570;2024-03-08T13:43:00;101515.56;;;9.82;100.00
75221;BME280;63802;53.232;6.570;2024-03-08T13:48:36;101524.19;;;9.84;100.00
75221;BME280;63802;53.232;6.570;2024-03-08T13:51:12;101459.03;;;9.42;100.00
75221;BME280;63802;53.232;6.570;2024-03-08T13:54:06;101514.69;;;9.78;100.00
75221;BME280;63802;53.232;6.570;2024-03-08T13:56:41;101470.09;;;9.25;100.00
75221;BME280;63802;53.232;6.570;2024-03-08T13:59:33;101508.16;;;9.01;100.00
75221;BME280;63802;53.232;6.570;2024-03-08T14:02:19;101471.31;;;8.83;100.00
75221;BME280;63802;53.232;6.570;2024-03-08T14:04:48;101474.22;;;8.66;100.00
75221;BME280;63802;53.232;6.570;2024-03-08T14:10:51;101484.41;;;8.69;100.00
75221;BME280;63802;53.232;6.570;2024-03-08T14:13:44;101438.41;;;8.43;100.00
75221;BME280;63802;53.232;6.570;2024-03-08T14:19:37;101452.47;;;8.45;100.00
75221;BME280;63802;53.232;6.570;2024-03-08T14:22:46;101446.38;;;8.48;100.00
75221;BME280;63802;53.232;6.570;2024-03-08T14:28:29;101412.25;;;8.09;100.00
75221;BME280;63802;53.232;6.570;2024-03-08T14:31:27;101433.06;;;8.05;100.00
75221;BME280;63802;53.232;6.570;2024-03-08T14:33:54;101400.31;;;8.23;100.00
75221;BME280;63802;53.232;6.570;2024-03-08T14:36:31;101407.50;;;8.27;100.00
75221;BME280;63802;53.232;6.570;2024-03-08T14:39:09;101383.50;;;8.08;100.00
75221;BME280;63802;53.232;6.570;2024-03-08T14:41:50;101385.56;;;7.82;100.00
75221;BME280;63802;53.232;6.570;2024-03-08T14:44:26;101432.59;;;8.24;100.00
75221;BME280;63802;53.232;6.570;2024-03-08T14:46:58;101387.84;;;8.01;100.00
75221;BME280;63802;53.232;6.570;2024-03-08T14:49:34;101379.75;;;7.92;100.00
75221;BME280;63802;53.232;6.570;2024-03-08T14:57:31;101352.06;;;7.78;100.00
75221;BME280;63802;53.232;6.570;2024-03-08T15:03:17;101393.19;;;8.39;100.00
75221;BME280;63802;53.232;6.570;2024-03-08T15:06:16;101386.47;;;8.16;100.00
75221;BME280;63802;53.232;6.570;2024-03-08T15:09:02;101390.41;;;8.27;100.00
75221;BME280;63802;53.232;6.570;2024-03-08T15:11:59;101345.97;;;7.81;100.00
75221;BME280;63802;53.232;6.570;2024-03-08T15:20:25;101353.53;;;7.96;100.00
75221;BME280;63802;53.232;6.570;2024-03-08T15:23:06;101360.94;;;7.87;100.00
75221;BME280;63802;53.232;6.570;2024-03-08T15:31:59;101308.50;;;7.46;100.00
75221;BME280;63802;53.232;6.570;2024-03-08T15:35:10;101330.63;;;7.56;100.00
75221;BME280;63802;53.232;6.570;2024-03-08T15:37:45;101316.38;;;7.38;100.00
75221;BME280;63802;53.232;6.570;2024-03-08T15:43:01;101299.00;;;7.31;100.00
75221;BME280;63802;53.232;6.570;2024-03-08T16:39:41;101253.84;;;6.68;100.00
75221;BME280;63802;53.232;6.570;2024-03-08T16:42:14;101295.53;;;6.93;100.00
75221;BME280;63802;53.232;6.570;2024-03-08T16:48:52;101253.88;;;6.59;100.00
75221;BME280;63802;53.232;6.570;2024-03-08T16:51:19;101265.50;;;6.68;100.00
75221;BME280;63802;53.232;6.570;2024-03-08T16:54:05;101283.16;;;6.74;100.00
75221;BME280;63802;53.232;6.570;2024-03-08T16:56:45;101280.97;;;6.68;100.00
75221;BME280;63802;53.232;6.570;2024-03-08T16:59:34;101234.81;;;6.39;100.00
75221;BME280;63802;53.232;6.570;2024-03-08T17:42:22;101281.09;;;5.82;100.00
75221;BME280;63802;53.232;6.570;2024-03-08T18:03:18;101215.66;;;5.20;100.00
75221;BME280;63802;53.232;6.570;2024-03-08T18:12:36;101220.06;;;5.08;100.00
75221;BME280;63802;53.232;6.570;2024-03-08T18:15:42;101238.53;;;5.14;100.00
75221;BME280;63802;53.232;6.570;2024-03-08T18:22:06;101209.53;;;4.89;100.00
75221;BME280;63802;53.232;6.570;2024-03-08T18:27:42;101214.75;;;4.86;100.00
75221;BME280;63802;53.232;6.570;2024-03-08T18:33:51;101251.25;;;5.05;100.00
75221;BME280;63802;53.232;6.570;2024-03-08T18:36:58;101253.47;;;5.03;100.00
75221;BME280;63802;53.232;6.570;2024-03-08T18:39:34;101241.53;;;4.96;100.00
75221;BME280;63802;53.232;6.570;2024-03-08T19:00:17;101215.84;;;4.76;100.00
75221;BME280;63802;53.232;6.570;2024-03-08T19:03:13;101208.81;;;4.66;100.00
75221;BME280;63802;53.232;6.570;2024-03-08T19:12:25;101195.31;;;4.66;100.00
75221;BME280;63802;53.232;6.570;2024-03-08T19:22:12;101177.81;;;4.55;100.00
75221;BME280;63802;53.232;6.570;2024-03-08T20:19:09;101143.41;;;3.99;100.00
75221;BME280;63802;53.232;6.570;2024-03-08T20:22:13;101180.69;;;4.20;100.00
75221;BME280;63802;53.232;6.570;2024-03-08T20:33:32;101176.50;;;4.14;100.00
75221;BME280;63802;53.232;6.570;2024-03-08T20:36:44;101153.25;;;3.95;100.00
75221;BME280;63802;53.232;6.570;2024-03-08T20:39:30;101146.22;;;3.94;100.00
75221;BME280;63802;53.232;6.570;2024-03-08T20:42:15;101167.56;;;4.04;100.00
75221;BME280;63802;53.232;6.570;2024-03-08T20:45:00;101144.28;;;3.86;100.00
75221;BME280;63802;53.232;6.570;2024-03-08T20:48:17;101167.50;;;3.96;100.00
75221;BME280;63802;53.232;6.570;2024-03-08T20:51:01;101139.53;;;3.83;100.00
75221;BME280;63802;53.232;6.570;2024-03-08T20:54:28;101160.84;;;3.93;100.00
75221;BME280;63802;53.232;6.570;2024-03-08T21:00:37;101113.84;;;3.64;100.00
75221;BME280;63802;53.232;6.570;2024-03-08T21:06:51;101128.00;;;3.69;100.00
75221;BME280;63802;53.232;6.570;2024-03-08T21:09:39;101110.09;;;3.51;100.00
75221;BME280;63802;53.232;6.570;2024-03-08T21:31:08;101071.00;;;3.40;100.00
75221;BME280;63802;53.232;6.570;2024-03-08T21:38:40;101072.72;;;3.36;100.00
75221;BME280;63802;53.232;6.570;2024-03-08T21:42:00;101121.75;;;3.60;100.00
75221;BME280;63802;53.232;6.570;2024-03-08T21:44:26;101079.75;;;3.46;100.00
75221;BME280;63802;53.232;6.570;2024-03-08T21:47:17;101072.59;;;3.41;100.00
75221;BME280;63802;53.232;6.570;2024-03-08T23:06:53;101030.31;;;2.84;100.00
75221;BME280;63802;53.232;6.570;2024-03-08T23:09:53;101049.06;;;2.89;100.00
75221;BME280;63802;53.232;6.570;2024-03-08T23:37:39;101070.91;;;2.65;100.00
75221;BME280;63802;53.232;6.570;2024-03-08T23:41:03;101051.41;;;2.46;100.00
75221;BME280;63802;53.232;6.570;2024-03-08T23:43:38;101067.34;;;2.56;100.00
75221;BME280;63802;53.232;6.570;2024-03-08T23:46:28;101058.16;;;2.57;100.00
75221;BME280;63802;53.232;6.570;2024-03-08T23:49:30;101007.34;;;2.28;100.00
75221;BME280;63802;53.232;6.570;2024-03-08T23:52:15;101035.66;;;2.39;100.00
